Gmunden, Austria
Current Conditions -  °F | °C
As of 1:20 AM on Monday 22 Dec 2014 (Local Time) from LOWL Reporting Station
Clear Clear  
Wind Chill: 33°   Ceiling: Unl
Heat Index: 41°   Visibility: 6mi
Dew Point: 32°   Wind: 15mph
Humidity: 70%   Direction: 250°WSW
Pressure: 30.36"   Gusts: NA
Location:  47.92°N, 13.81°E
Report Text: LOWL 212320Z AUTO 25013KT CAVOK 05/M00 Q1028
Loading
Personal Weather Stations






























Interactive Weather Map New forecast layout! Learn more

10-Day Weather Forecast

Advertisements
Track Severe Weather on mobile